Have a Safe July 4th! 

Flight Track Log - Related Links

Times and Time Zones

All times are in EDT time to prevent confusion due to time zone crossing. See the N667CD flight status page for this flight to view local times or setup timezone preferences in your user account.

Time Position Orientation Groundspeed Altitude Reporting Facility
EDT Latitude Longitude Course Direction KTS MPH feet Rate Location/Type
Tue 09:04:10 AM 33.8167 -84.4333 220° Southwest 164 189 5,000  Level Atlanta TRACON
Tue 09:05:00 AM 33.6348 -84.1351 175° South  Level Estimated
Tue 09:06:00 AM 33.5886 -84.1404 185° South  Level FlightAware Approximate
Tue 09:06:00 AM 33.7444 -84.3796 174° South  Level Estimated
Tue 09:07:00 AM 33.5425 -84.1457 185° South  Level FlightAware Approximate
Tue 09:08:10 AM 33.6333 -84.4500 175° South 159 183 5,000  Level Atlanta TRACON
Tue 09:09:10 AM 33.6000 -84.4500 180° South 158 182 5,000  Level Atlanta TRACON
Tue 09:11:00 AM 33.5292 -84.3937 146° Southeast  Level Estimated
Tue 09:12:10 AM 33.4667 -84.4167 146° Southeast 158 182 5,000  Level Atlanta TRACON
Tue 09:13:00 AM 33.4684 -84.1752 175° South  Level Estimated
Tue 09:14:10 AM 33.4000 -84.3500 140° Southeast 156 180 5,000  Level Atlanta TRACON
Tue 09:15:04 AM 33.3667 -84.3333 157° South 158 182 5,000  Level Atlanta TRACON
Tue 09:16:10 AM 33.3333 -84.2833 129° Southeast 157 181 5,000 190 Level Atlanta TRACON
Tue 09:17:10 AM 33.3000 -84.2500 140° Southeast 146 168 5,400 417 Climbing Atlanta TRACON
Tue 09:18:05 AM 33.2667 -84.2333 157° South 139 160 5,800 417 Climbing Atlanta TRACON
Tue 09:19:05 AM 33.2500 -84.2000 121° Southeast 139 160 6,200 421 Climbing Atlanta TRACON
Tue 09:19:59 AM 33.2167 -84.1667 140° Southeast 135 155 6,600 421 Climbing Atlanta TRACON
Tue 09:20:59 AM 33.1833 -84.1500 157° South 134 154 7,000 400 Climbing Atlanta TRACON
Tue 09:21:59 AM 33.1667 -84.1167 121° Southeast 140 161 7,400 429 Climbing Atlanta TRACON
Tue 09:23:05 AM 33.1167 -84.0833 151° Southeast 138 159 7,900 400 Climbing Atlanta TRACON
Tue 09:23:59 AM 33.1000 -84.0667 140° Southeast 141 162 8,200 400 Climbing Atlanta TRACON
Tue 09:25:05 AM 33.0667 -84.0333 140° Southeast 144 166 8,700 400 Climbing Atlanta TRACON
Tue 09:25:59 AM 33.0333 -84.0167 157° South 144 166 9,000 167 Climbing Atlanta TRACON
Tue 09:26:53 AM 33.0000 -83.9833 140° Southeast 159 183 9,000  Level Atlanta TRACON
Tue 09:27:53 AM 32.9667 -83.9667 157° South 163 188 9,000  Level Atlanta TRACON
Tue 09:28:53 AM 32.9167 -83.9333 151° Southeast 163 188 9,000  Level Atlanta TRACON
Tue 09:29:53 AM 32.8833 -83.9000 140° Southeast 164 189 9,000  Level Atlanta TRACON
Tue 09:30:47 AM 32.8500 -83.8667 140° Southeast 165 190 9,000  Level Atlanta TRACON
Tue 09:31:47 AM 32.8000 -83.8333 151° Southeast 164 189 9,000  Level Atlanta TRACON
Tue 09:32:41 AM 32.7667 -83.8167 157° South 164 189 9,000  Level Atlanta TRACON
Tue 09:33:41 AM 32.7333 -83.7833 140° Southeast 164 189 9,000  Level Atlanta TRACON
Tue 09:34:35 AM 32.7000 -83.7667 157° South 164 189 9,000  Level Atlanta TRACON
Tue 09:35:35 AM 32.6667 -83.7333 140° Southeast 172 198 9,000  Level Atlanta TRACON
Tue 09:36:29 AM 32.6333 -83.7000 140° Southeast 172 198 9,000  Level Atlanta TRACON
Tue 09:37:29 AM 32.5833 -83.6667 151° Southeast 163 188 9,000  Level Atlanta TRACON
Tue 09:38:23 AM 32.5500 -83.6500 157° South 161 185 9,000  Level Atlanta TRACON
Tue 09:39:54 AM 32.5028 -83.6069 142° Southeast 169 194 9,000  Level Jacksonville Center
Tue 09:40:54 AM 32.4633 -83.5772 148° Southeast 169 194 9,000  Level Jacksonville Center
Tue 09:41:54 AM 32.4258 -83.5472 146° Southeast 169 194 9,000 -50 Level Jacksonville Center
Tue 09:42:54 AM 32.3906 -83.5175 145° Southeast 164 189 8,900 -50 Descending Jacksonville Center
Tue 09:43:54 AM 32.3531 -83.4903 148° Southeast 164 189 8,900  Level Jacksonville Center
Tue 09:44:54 AM 32.3156 -83.4581 144° Southeast 164 189 8,900  Level Jacksonville Center
Tue 09:45:54 AM 32.2781 -83.4258 144° Southeast 164 189 8,900  Level Jacksonville Center
Tue 09:46:54 AM 32.2428 -83.3961 145° Southeast 164 189 8,900  Level Jacksonville Center
Tue 09:47:54 AM 32.2053 -83.3617 142° Southeast 164 189 8,900  Level Jacksonville Center
Tue 09:48:54 AM 32.1700 -83.3344 147° Southeast 164 189 8,900  Level Jacksonville Center
Tue 09:49:54 AM 32.1344 -83.2997 140° Southeast 164 189 8,900  Level Jacksonville Center
Tue 09:50:54 AM 32.0972 -83.2678 144° Southeast 164 189 8,900  Level Jacksonville Center
Tue 09:51:54 AM 32.0597 -83.2358 144° Southeast 164 189 8,900  Level Jacksonville Center
Tue 09:52:54 AM 32.0242 -83.2061 145° Southeast 164 189 8,900  Level Jacksonville Center
Tue 09:53:54 AM 31.9867 -83.1719 142° Southeast 164 189 8,900  Level Jacksonville Center
Tue 09:54:54 AM 31.9492 -83.1397 144° Southeast 164 189 8,900  Level Jacksonville Center
Tue 09:55:54 AM 31.9136 -83.1081 143° Southeast 164 189 8,900  Level Jacksonville Center
Tue 09:56:54 AM 31.8742 -83.0761 145° Southeast 164 189 8,900  Level Jacksonville Center
Tue 09:57:54 AM 31.8386 -83.0467 145° Southeast 164 189 8,900  Level Jacksonville Center
Tue 09:58:54 AM 31.8031 -83.0125 141° Southeast 164 189 8,900  Level Jacksonville Center
Tue 09:59:54 AM 31.7656 -82.9806 144° Southeast 164 189 8,900  Level Jacksonville Center
Tue 10:00:54 AM 31.7303 -82.9511 145° Southeast 164 189 8,900  Level Jacksonville Center
Tue 10:01:54 AM 31.6906 -82.9169 144° Southeast 164 189 8,900  Level Jacksonville Center
Tue 10:02:54 AM 31.6550 -82.8878 145° Southeast 164 189 8,900  Level Jacksonville Center
Tue 10:03:54 AM 31.6175 -82.8561 144° Southeast 164 189 8,900  Level Jacksonville Center
Tue 10:04:54 AM 31.5819 -82.8267 145° Southeast 164 189 8,900  Level Jacksonville Center
Tue 10:05:54 AM 31.5464 -82.7925 141° Southeast 164 189 8,900  Level Jacksonville Center
Tue 10:06:54 AM 31.5108 -82.7633 145° Southeast 164 189 8,900  Level Jacksonville Center
Tue 10:07:54 AM 31.4753 -82.7317 143° Southeast 164 189 8,900  Level Jacksonville Center
Tue 10:08:54 AM 31.4378 -82.7028 147° Southeast 164 189 8,900  Level Jacksonville Center
Tue 10:09:54 AM 31.4022 -82.6711 143° Southeast 164 189 8,900  Level Jacksonville Center
Tue 10:10:54 AM 31.3644 -82.6394 144° Southeast 164 189 8,900  Level Jacksonville Center
Tue 10:11:54 AM 31.3311 -82.6081 141° Southeast 164 189 8,900  Level Jacksonville Center
Tue 10:12:54 AM 31.2933 -82.5839 151° Southeast 164 189 8,900 50 Level Jacksonville Center
Tue 10:13:54 AM 31.2578 -82.5547 145° Southeast 164 189 9,000  Climbing Jacksonville Center
Tue 10:14:54 AM 31.2161 -82.5283 152° Southeast 164 189 8,900 -50 Descending Jacksonville Center
Tue 10:15:54 AM 31.1783 -82.5042 151° Southeast 164 189 8,900  Level Jacksonville Center
Tue 10:16:54 AM 31.1386 -82.4775 150° Southeast 164 189 8,900 -200 Level Jacksonville Center
Tue 10:17:54 AM 31.0989 -82.4511 150° Southeast 164 189 8,500 -400 Descending Jacksonville Center
Tue 10:18:54 AM 31.0569 -82.4219 149° Southeast 164 189 8,100 -419 Descending Jacksonville Center
Tue 10:19:20 AM 31.0361 -82.4053 146° Southeast 177 204 7,900 -400 Descending Jacksonville Center
Tue 10:19:54 AM 31.0131 -82.3933 156° South 169 194 7,700 -448 Descending Jacksonville Center
Tue 10:20:27 AM 30.9858 -82.3739 149° Southeast 176 203 7,400 -400 Descending Jacksonville Center
Tue 10:20:54 AM 30.9711 -82.3667 157° South 174 200 7,300 -295 Descending Jacksonville Center
Tue 10:21:28 AM 30.9461 -82.3475 147° Southeast 176 203 7,100 -400 Descending Jacksonville Center
Tue 10:21:54 AM 30.9292 -82.3403 160° South 174 200 6,900 -492 Descending Jacksonville Center
Tue 10:22:29 AM 30.9019 -82.3189 146° Southeast 177 204 6,600 -400 Descending Jacksonville Center
Tue 10:22:54 AM 30.8853 -82.3092 153° Southeast 179 206 6,500 -327 Descending Jacksonville Center
Tue 10:23:24 AM 30.8644 -82.2925 146° Southeast 174 200 6,300 -400 Descending Jacksonville Center
Tue 10:23:54 AM 30.8433 -82.2828 158° South 179 206 6,100 -295 Descending Jacksonville Center
Tue 10:24:25 AM 30.8203 -82.2661 148° Southeast 172 198 6,000 -100 Descending Jacksonville Center
Tue 10:24:54 AM 30.8014 -82.2564 156° South 179 206 6,000  Level Jacksonville Center
Tue 10:25:32 AM 30.7742 -82.2372 149° Southeast 162 186 6,000  Level Jacksonville Center
Tue 10:25:54 AM 30.7639 -82.2300 149° Southeast 172 198 6,000  Level Jacksonville Center
Tue 10:26:33 AM 30.7367 -82.2133 152° Southeast 159 183 6,000  Level Jacksonville Center
Tue 10:26:54 AM 30.7239 -82.2039 148° Southeast 167 192 6,000  Level Jacksonville Center
Tue 10:27:34 AM 30.6967 -82.1872 152° Southeast 161 185 6,000  Level Jacksonville Center
Tue 10:27:54 AM 30.6864 -82.1775 141° Southeast 162 186 6,000 -393 Level Jacksonville Center
Tue 10:28:35 AM 30.6569 -82.1608 154° Southeast 165 190 5,600 -500 Descending Jacksonville Center
Tue 10:28:54 AM 30.6444 -82.1536 154° Southeast 162 186 5,500 -436 Descending Jacksonville Center
Tue 10:29:30 AM 30.6172 -82.1347 149° Southeast 177 204 5,200 -557 Descending Jacksonville Center
Tue 10:30:31 AM 30.5753 -82.1083 152° Southeast 177 204 4,600 -541 Descending Jacksonville Center
Tue 10:31:32 AM 30.5269 -82.0775 151° Southeast 178 205 4,100 -469 Descending Jacksonville Center
Tue 10:32:39 AM 30.4808 -82.0489 152° Southeast 173 199 3,600 -469 Descending Jacksonville Center
Tue 10:33:40 AM 30.4411 -82.0228 150° Southeast 163 188 3,100 -541 Descending Jacksonville Center
Tue 10:34:41 AM 30.3928 -82.0089 166° South 169 194 2,500 -492 Descending Jacksonville Center
Tue 10:35:42 AM 30.3489 -81.9972 167° South 165 190 2,100 -261 Descending Jacksonville Center
Tue 10:36:36 AM 30.3072 -81.9878 169° South 160 184 2,000 -157 Descending Jacksonville Center
Tue 10:37:37 AM 30.2675 -81.9739 163° South 146 168 1,800 -234 Descending Jacksonville Center
Tue 10:38:44 AM 30.2297 -81.9572 159° South 131 151 1,500 -563 Descending Jacksonville Center
Tue 10:39:45 AM 30.2169 -81.9286 117° Southeast 91 105 600 -885 Descending Jacksonville Center
Tue 10:41:00 AM 30.2188 -81.8772 147° Southeast  Level Estimated
Tue 10:48:00 AM 30.2188 -81.8772 147° Southeast  Level Estimated

Login

Don't have an account? Register now (free) for customized features, flight alerts, and more!